HBA weather

Hobart International Airport
Hobart, Tasmania, Australia

Public forecast

Using degrees Celsius for public forecast. Weather courtesy of forecast.io.

METAR (pilot weather report)

Retrieved 2018/09/21 14:00 UTC (9 minutes ago):

YMHB 211400Z 32020KT CAVOK 12/03 Q1018

TAF (pilot weather forecast)

Forecast is more than 6 hours old.

Retrieved 2018/09/21 06:36 UTC (8 hours ago):

TAF YMHB 210518Z 2106/2206 31014KT 9999 FEW035 FM210800 31008KT 9999 FEW030 FM211500 28006KT 9999 FEW025 FM212300 31015KT 9999 SCT020 FM220400 23012KT 9999 -SHRA SCT020 BKN040